CPX956 Details

Departure: Travis Air Force Base (KSUU)
Arrival: Sacramento International Airport (KSMF)
Notes: EMPTY | NON-REVENUE REPOSITIONING LEG | VFR DEPARTURE RCMD IF WX PERMITS


Current Weather Information
KSUU 181458Z AUTO 05004KT 10SM CLR 07/05 A3001 RMK AO2 SLP169 T00660048
KSMF 181453Z 32006KT 10SM CLR 07/07 A3001 RMK AO2 SLP161 T00720067 52007